createdAt,value
2017-08-07T00:00:25.308Z,0
2017-08-07T00:01:05.896Z,0
2017-08-07T00:01:46.465Z,0
2017-08-07T00:02:27.063Z,0
2017-08-07T00:03:07.677Z,0
2017-08-07T00:03:48.265Z,0
2017-08-07T00:04:28.828Z,0
2017-08-07T00:05:09.405Z,0
2017-08-07T00:05:49.964Z,0
2017-08-07T00:06:30.536Z,0
2017-08-07T00:07:11.122Z,0
2017-08-07T00:07:51.695Z,0
2017-08-07T00:08:32.281Z,0
2017-08-07T00:09:12.831Z,0
2017-08-07T00:09:53.404Z,0
2017-08-07T00:10:33.984Z,0
2017-08-07T00:11:14.560Z,0
2017-08-07T00:11:55.133Z,0
2017-08-07T00:12:35.708Z,0
2017-08-07T00:13:16.303Z,0
2017-08-07T00:13:56.893Z,0
2017-08-07T00:14:37.459Z,0
2017-08-07T00:15:18.053Z,0
2017-08-07T00:15:58.631Z,0
2017-08-07T00:16:39.196Z,0
2017-08-07T00:17:19.752Z,0
2017-08-07T00:18:00.322Z,0
2017-08-07T00:18:40.908Z,0
2017-08-07T00:19:21.497Z,0
2017-08-07T00:20:02.072Z,0
2017-08-07T00:20:42.639Z,0
2017-08-07T00:21:23.211Z,0
2017-08-07T00:22:03.777Z,0
2017-08-07T00:22:44.390Z,0
2017-08-07T00:23:24.962Z,0
2017-08-07T00:24:05.554Z,0
2017-08-07T00:24:46.164Z,0
2017-08-07T00:25:26.719Z,0
2017-08-07T00:26:07.279Z,0
2017-08-07T00:26:47.862Z,0
2017-08-07T00:27:28.443Z,0
2017-08-07T00:28:15.545Z,0
2017-08-07T00:28:56.140Z,0
2017-08-07T00:29:36.729Z,0
2017-08-07T00:30:17.329Z,0
2017-08-07T00:30:57.894Z,0
2017-08-07T00:31:38.475Z,0
2017-08-07T00:32:19.052Z,0
2017-08-07T00:32:59.660Z,0
2017-08-07T00:33:40.237Z,0
2017-08-07T00:34:20.819Z,0
2017-08-07T00:35:01.437Z,0
2017-08-07T00:35:42.026Z,0
2017-08-07T00:36:22.595Z,0
2017-08-07T00:37:03.166Z,0
2017-08-07T00:37:43.742Z,0
2017-08-07T00:38:24.317Z,0
2017-08-07T00:39:04.903Z,0
2017-08-07T00:39:45.484Z,0
2017-08-07T00:40:26.067Z,0
2017-08-07T00:41:06.642Z,0
2017-08-07T00:41:47.221Z,0
2017-08-07T00:42:27.780Z,0
2017-08-07T00:43:08.350Z,0
2017-08-07T00:43:48.919Z,0
2017-08-07T00:44:29.552Z,0
2017-08-07T00:45:10.127Z,0
2017-08-07T00:45:50.714Z,0
2017-08-07T00:46:31.300Z,0
2017-08-07T00:47:11.881Z,0
2017-08-07T00:47:52.477Z,0
2017-08-07T00:48:33.045Z,0
2017-08-07T00:49:13.628Z,0
2017-08-07T00:49:54.206Z,0
2017-08-07T00:50:34.773Z,0
2017-08-07T00:51:15.342Z,0
2017-08-07T00:51:55.941Z,0
2017-08-07T00:52:36.517Z,0
2017-08-07T00:53:17.080Z,0
2017-08-07T00:53:57.653Z,0
2017-08-07T00:54:38.260Z,0
2017-08-07T00:55:18.865Z,0
2017-08-07T00:55:59.437Z,0
2017-08-07T00:56:40.011Z,0
2017-08-07T00:57:20.591Z,0
2017-08-07T00:58:01.176Z,0
2017-08-07T00:58:41.752Z,0
2017-08-07T00:59:22.326Z,0
2017-08-07T01:00:02.895Z,0
2017-08-07T01:00:43.488Z,0
2017-08-07T01:01:24.052Z,0
2017-08-07T01:02:04.621Z,0
2017-08-07T01:02:45.216Z,0
2017-08-07T01:03:25.785Z,0
2017-08-07T01:04:06.414Z,0
2017-08-07T01:04:46.965Z,0
2017-08-07T01:05:27.506Z,0
2017-08-07T01:06:08.076Z,0
2017-08-07T01:06:48.660Z,0
2017-08-07T01:07:29.220Z,0
2017-08-07T01:08:09.808Z,0
2017-08-07T01:08:50.381Z,0
2017-08-07T01:09:30.955Z,0
2017-08-07T01:10:11.513Z,0
2017-08-07T01:10:52.156Z,0
2017-08-07T01:11:32.726Z,0
2017-08-07T01:12:13.315Z,0
2017-08-07T01:12:53.953Z,0
2017-08-07T01:13:34.523Z,0
2017-08-07T01:14:15.139Z,0
2017-08-07T01:14:55.722Z,0
2017-08-07T01:15:36.353Z,0
2017-08-07T01:16:16.980Z,0
2017-08-07T01:16:57.540Z,0
2017-08-07T01:17:38.131Z,0
2017-08-07T01:18:18.727Z,0
2017-08-07T01:18:59.370Z,0
2017-08-07T01:19:39.955Z,0
2017-08-07T01:20:20.527Z,0
2017-08-07T01:21:01.116Z,0
2017-08-07T01:21:41.699Z,0
2017-08-07T01:22:22.279Z,0
2017-08-07T01:23:02.841Z,0
2017-08-07T01:23:43.431Z,0
2017-08-07T01:24:23.993Z,0
2017-08-07T01:25:04.591Z,0
2017-08-07T01:25:45.233Z,0
2017-08-07T01:26:25.859Z,0
2017-08-07T01:27:06.419Z,0
2017-08-07T01:27:47.014Z,0
2017-08-07T01:28:27.562Z,0
2017-08-07T01:29:08.134Z,0
2017-08-07T01:29:48.696Z,0
2017-08-07T01:30:29.292Z,0
2017-08-07T01:31:09.863Z,0
2017-08-07T01:31:50.426Z,0
2017-08-07T01:32:31.016Z,0
2017-08-07T01:33:11.593Z,0
2017-08-07T01:33:52.160Z,0
2017-08-07T01:34:32.752Z,0
2017-08-07T01:35:13.328Z,0
2017-08-07T01:35:53.917Z,0
2017-08-07T01:36:34.478Z,0
2017-08-07T01:37:15.079Z,0
2017-08-07T01:37:55.685Z,0
2017-08-07T01:38:36.271Z,0
2017-08-07T01:39:16.875Z,0
2017-08-07T01:39:57.450Z,0
2017-08-07T01:40:38.033Z,0
2017-08-07T01:41:18.663Z,0
2017-08-07T01:41:59.238Z,0
2017-08-07T01:42:39.859Z,0
2017-08-07T01:43:20.454Z,0
2017-08-07T01:44:01.086Z,0
2017-08-07T01:44:41.683Z,0
2017-08-07T01:45:22.279Z,0
2017-08-07T01:46:02.840Z,0
2017-08-07T01:46:43.467Z,0
2017-08-07T01:47:24.058Z,0
2017-08-07T01:48:04.645Z,0
2017-08-07T01:48:45.228Z,0
2017-08-07T01:49:25.804Z,0
2017-08-07T01:50:06.428Z,0
2017-08-07T01:50:47.004Z,0
2017-08-07T01:51:27.613Z,0
2017-08-07T01:52:08.230Z,0
2017-08-07T01:52:48.809Z,0
2017-08-07T01:53:29.385Z,0
2017-08-07T01:54:09.974Z,0
2017-08-07T01:54:50.582Z,0
2017-08-07T01:55:31.151Z,0
2017-08-07T01:56:11.725Z,0
2017-08-07T01:56:52.329Z,0
2017-08-07T01:57:32.908Z,0
2017-08-07T01:58:13.512Z,0
2017-08-07T01:58:54.084Z,0
2017-08-07T01:59:34.649Z,0
2017-08-07T02:00:15.253Z,0
2017-08-07T02:00:55.831Z,0
2017-08-07T02:01:36.430Z,0
2017-08-07T02:02:16.979Z,0
2017-08-07T02:02:57.595Z,0
2017-08-07T02:03:38.232Z,0
2017-08-07T02:04:18.935Z,0
2017-08-07T02:04:59.512Z,0
2017-08-07T02:05:40.099Z,0
2017-08-07T02:06:20.675Z,0
2017-08-07T02:07:01.273Z,0
2017-08-07T02:07:41.877Z,0
2017-08-07T02:08:22.489Z,0
2017-08-07T02:09:03.062Z,0
2017-08-07T02:09:43.649Z,0
2017-08-07T02:10:24.228Z,0
2017-08-07T02:11:04.823Z,0
2017-08-07T02:11:45.372Z,0
2017-08-07T02:12:25.955Z,0
2017-08-07T02:13:06.545Z,0
2017-08-07T02:13:47.118Z,0
2017-08-07T02:14:27.752Z,0
2017-08-07T02:15:08.370Z,0
2017-08-07T02:15:48.980Z,0
2017-08-07T02:16:29.570Z,0
2017-08-07T02:17:10.141Z,0
2017-08-07T02:17:50.722Z,0
2017-08-07T02:18:31.281Z,0
2017-08-07T02:19:11.872Z,0
2017-08-07T02:19:52.457Z,0
2017-08-07T02:20:33.039Z,0
2017-08-07T02:21:13.599Z,0
2017-08-07T02:21:54.179Z,0
2017-08-07T02:22:34.782Z,0
2017-08-07T02:23:15.340Z,0
2017-08-07T02:23:55.913Z,0
2017-08-07T02:24:36.497Z,0
2017-08-07T02:25:17.097Z,0
2017-08-07T02:25:57.709Z,0
2017-08-07T02:26:38.300Z,0
2017-08-07T02:27:18.868Z,0
2017-08-07T02:27:59.432Z,0
2017-08-07T02:28:40.007Z,0
2017-08-07T02:29:20.579Z,0
2017-08-07T02:30:01.153Z,0
2017-08-07T02:30:41.738Z,0
2017-08-07T02:31:22.319Z,0
2017-08-07T02:32:02.894Z,0
2017-08-07T02:32:43.491Z,0
2017-08-07T02:33:24.083Z,0
2017-08-07T02:34:04.657Z,0
2017-08-07T02:34:45.253Z,0
2017-08-07T02:35:25.871Z,0
2017-08-07T02:36:06.450Z,0
2017-08-07T02:36:47.037Z,0
2017-08-07T02:37:27.633Z,0
2017-08-07T02:38:08.201Z,0
2017-08-07T02:38:48.786Z,0
2017-08-07T02:39:29.367Z,0
2017-08-07T02:40:09.939Z,0
2017-08-07T02:40:50.528Z,0
2017-08-07T02:41:31.118Z,0
2017-08-07T02:42:11.692Z,0
2017-08-07T02:42:52.264Z,0
2017-08-07T02:43:32.848Z,0
2017-08-07T02:44:13.412Z,0
2017-08-07T02:44:53.997Z,0
2017-08-07T02:45:34.572Z,0
2017-08-07T02:46:15.162Z,0
2017-08-07T02:46:55.744Z,0
2017-08-07T02:47:36.377Z,0
2017-08-07T02:48:16.950Z,0
2017-08-07T02:48:57.539Z,0
2017-08-07T02:49:38.117Z,0
2017-08-07T02:50:18.692Z,0
2017-08-07T02:50:59.254Z,0
2017-08-07T02:51:39.818Z,0
2017-08-07T02:52:20.405Z,0
2017-08-07T02:53:01.005Z,0
2017-08-07T02:53:41.574Z,0
2017-08-07T02:54:22.152Z,0
2017-08-07T02:55:02.716Z,0
2017-08-07T02:55:43.315Z,0
2017-08-07T02:56:23.883Z,0
2017-08-07T02:57:04.462Z,0
2017-08-07T02:57:45.031Z,0
2017-08-07T02:58:25.646Z,0
2017-08-07T02:59:06.245Z,0
2017-08-07T02:59:46.825Z,0
2017-08-07T03:00:27.398Z,0
2017-08-07T03:01:07.970Z,0
2017-08-07T03:01:48.563Z,0
2017-08-07T03:02:29.165Z,0
2017-08-07T03:03:09.743Z,0
2017-08-07T03:03:50.320Z,0
2017-08-07T03:04:30.906Z,0
2017-08-07T03:05:11.504Z,0
2017-08-07T03:05:52.085Z,0
2017-08-07T03:06:32.659Z,0
2017-08-07T03:07:13.235Z,0
2017-08-07T03:07:53.815Z,0
2017-08-07T03:08:34.407Z,0
2017-08-07T03:09:14.977Z,0
2017-08-07T03:09:55.553Z,0
2017-08-07T03:10:36.121Z,0
2017-08-07T03:11:16.698Z,0
2017-08-07T03:11:57.286Z,0
2017-08-07T03:12:37.874Z,0
2017-08-07T03:13:18.482Z,0
2017-08-07T03:13:59.053Z,0
2017-08-07T03:14:39.621Z,0
2017-08-07T03:15:20.221Z,0
2017-08-07T03:16:00.792Z,0
2017-08-07T03:16:41.374Z,0
2017-08-07T03:17:21.942Z,0
2017-08-07T03:18:02.567Z,0
2017-08-07T03:18:43.145Z,0
2017-08-07T03:19:23.746Z,0
2017-08-07T03:20:04.320Z,0
2017-08-07T03:20:44.909Z,0
2017-08-07T03:21:25.482Z,0
2017-08-07T03:22:06.075Z,0
2017-08-07T03:22:46.651Z,0
2017-08-07T03:23:27.251Z,0
2017-08-07T03:24:07.829Z,0
2017-08-07T03:24:48.400Z,0
2017-08-07T03:25:28.972Z,0
2017-08-07T03:26:09.561Z,0
2017-08-07T03:26:50.144Z,0
2017-08-07T03:27:30.731Z,0
2017-08-07T03:28:11.306Z,0
2017-08-07T03:28:51.873Z,0
2017-08-07T03:29:32.455Z,0
2017-08-07T03:30:13.027Z,0
2017-08-07T03:30:53.621Z,0
2017-08-07T03:31:34.298Z,0
2017-08-07T03:32:14.892Z,0
2017-08-07T03:32:55.457Z,0
2017-08-07T03:33:36.035Z,0
2017-08-07T03:34:16.617Z,0
2017-08-07T03:34:57.184Z,0
2017-08-07T03:35:37.763Z,0
2017-08-07T03:36:18.339Z,0
2017-08-07T03:36:58.920Z,0
2017-08-07T03:37:39.484Z,0
2017-08-07T03:38:20.083Z,0
2017-08-07T03:39:00.661Z,0
2017-08-07T03:39:41.235Z,0
2017-08-07T03:40:21.801Z,5
2017-08-07T03:41:02.380Z,5
2017-08-07T03:41:42.960Z,5
2017-08-07T03:42:23.533Z,5
2017-08-07T03:43:04.127Z,5
2017-08-07T03:43:44.705Z,5
2017-08-07T03:44:25.278Z,5
2017-08-07T03:45:05.880Z,5
2017-08-07T03:45:46.469Z,5
2017-08-07T03:46:27.059Z,5
2017-08-07T03:47:07.631Z,5
2017-08-07T03:47:48.201Z,5
2017-08-07T03:48:28.761Z,5
2017-08-07T03:49:09.335Z,5
2017-08-07T03:49:49.908Z,5
2017-08-07T03:50:30.486Z,5
2017-08-07T03:51:11.062Z,5
2017-08-07T03:51:51.614Z,5
2017-08-07T03:52:32.199Z,10
2017-08-07T03:53:12.759Z,10
2017-08-07T03:53:53.341Z,10
2017-08-07T03:54:33.917Z,10
2017-08-07T03:55:14.503Z,10
2017-08-07T03:55:55.084Z,10
2017-08-07T03:56:35.682Z,10
2017-08-07T03:57:16.250Z,10
2017-08-07T03:57:56.831Z,10
2017-08-07T03:58:37.421Z,10
2017-08-07T03:59:17.982Z,10
2017-08-07T03:59:58.547Z,10
2017-08-07T04:00:39.139Z,10
2017-08-07T04:01:19.735Z,15
2017-08-07T04:02:00.355Z,15
2017-08-07T04:02:40.966Z,15
2017-08-07T04:03:21.544Z,15
2017-08-07T04:04:02.159Z,15
2017-08-07T04:04:42.760Z,15
2017-08-07T04:05:23.353Z,15
2017-08-07T04:06:03.949Z,15
2017-08-07T04:06:44.577Z,15
2017-08-07T04:07:25.152Z,15
2017-08-07T04:08:05.778Z,15
2017-08-07T04:08:46.343Z,15
2017-08-07T04:09:27.003Z,20
2017-08-07T04:10:07.674Z,20
2017-08-07T04:10:48.319Z,20
2017-08-07T04:11:28.953Z,20
2017-08-07T04:12:09.524Z,20
2017-08-07T04:12:50.140Z,20
2017-08-07T04:13:30.812Z,20
2017-08-07T04:14:11.388Z,20
2017-08-07T04:14:51.968Z,20
2017-08-07T04:15:32.549Z,20
2017-08-07T04:16:13.125Z,20
2017-08-07T04:16:53.758Z,25
2017-08-07T04:17:34.323Z,25
2017-08-07T04:18:14.968Z,25
2017-08-07T04:18:55.541Z,25
2017-08-07T04:19:36.175Z,25
2017-08-07T04:20:16.743Z,25
2017-08-07T04:20:57.322Z,25
2017-08-07T04:21:37.888Z,25
2017-08-07T04:22:18.461Z,25
2017-08-07T04:22:59.026Z,25
2017-08-07T04:23:39.606Z,25
2017-08-07T04:24:20.217Z,30
2017-08-07T04:25:00.836Z,30
2017-08-07T04:25:41.354Z,30
2017-08-07T04:26:21.942Z,30
2017-08-07T04:27:02.519Z,30
2017-08-07T04:27:43.106Z,30
2017-08-07T04:28:23.666Z,30
2017-08-07T04:29:04.239Z,30
2017-08-07T04:29:44.842Z,30
2017-08-07T04:30:25.405Z,35
2017-08-07T04:31:06.004Z,35
2017-08-07T04:31:46.573Z,35
2017-08-07T04:32:27.143Z,35
2017-08-07T04:33:07.755Z,35
2017-08-07T04:33:48.305Z,35
2017-08-07T04:34:28.879Z,35
2017-08-07T04:35:09.528Z,35
2017-08-07T04:35:50.087Z,35
2017-08-07T04:36:30.704Z,35
2017-08-07T04:37:11.271Z,40
2017-08-07T04:37:51.873Z,40
2017-08-07T04:38:32.474Z,40
2017-08-07T04:39:13.039Z,40
2017-08-07T04:39:53.609Z,40
2017-08-07T04:40:34.185Z,40
2017-08-07T04:41:14.805Z,40
2017-08-07T04:41:55.421Z,40
2017-08-07T04:42:36.003Z,40
2017-08-07T04:43:16.609Z,40
2017-08-07T04:43:57.217Z,45
2017-08-07T04:44:37.785Z,45
2017-08-07T04:45:18.410Z,45
2017-08-07T04:45:58.981Z,45
2017-08-07T04:46:39.551Z,45
2017-08-07T04:47:20.173Z,45
2017-08-07T04:48:00.768Z,45
2017-08-07T04:48:41.363Z,45
2017-08-07T04:49:21.977Z,45
2017-08-07T04:50:02.568Z,50
2017-08-07T04:50:43.140Z,50
2017-08-07T04:51:23.731Z,50
2017-08-07T04:52:04.317Z,50
2017-08-07T04:52:44.891Z,50
2017-08-07T04:53:25.460Z,50
2017-08-07T04:54:06.045Z,50
2017-08-07T04:54:46.698Z,50
2017-08-07T04:55:27.319Z,50
2017-08-07T04:56:07.916Z,55
2017-08-07T04:56:48.520Z,55
2017-08-07T04:57:29.110Z,55
2017-08-07T04:58:09.680Z,55
2017-08-07T04:58:50.291Z,55
2017-08-07T04:59:30.891Z,55
2017-08-07T05:00:11.503Z,55
2017-08-07T05:00:52.146Z,55
2017-08-07T05:01:32.719Z,55
2017-08-07T05:02:13.281Z,60
2017-08-07T05:02:53.866Z,60
2017-08-07T05:03:34.440Z,60
2017-08-07T05:04:15.072Z,60
2017-08-07T05:04:55.647Z,60
2017-08-07T05:05:36.223Z,60
2017-08-07T05:06:16.802Z,60
2017-08-07T05:06:57.371Z,60
2017-08-07T05:07:37.974Z,60
2017-08-07T05:08:18.539Z,65
2017-08-07T05:08:59.112Z,65
2017-08-07T05:09:39.730Z,65
2017-08-07T05:10:20.303Z,65
2017-08-07T05:11:00.889Z,65
2017-08-07T05:11:41.467Z,65
2017-08-07T05:12:22.075Z,65
2017-08-07T05:13:02.658Z,65
2017-08-07T05:13:43.226Z,65
2017-08-07T05:14:23.837Z,70
2017-08-07T05:15:04.427Z,70
2017-08-07T05:15:45.005Z,70
2017-08-07T05:16:25.572Z,70
2017-08-07T05:17:06.202Z,70
2017-08-07T05:17:46.783Z,70
2017-08-07T05:18:27.350Z,70
2017-08-07T05:19:07.931Z,70
2017-08-07T05:19:48.528Z,70
2017-08-07T05:20:29.128Z,70
2017-08-07T05:21:09.720Z,75
2017-08-07T05:21:50.298Z,75
2017-08-07T05:22:30.878Z,75
2017-08-07T05:23:11.494Z,75
2017-08-07T05:23:52.141Z,75
2017-08-07T05:24:32.688Z,75
2017-08-07T05:25:13.260Z,75
2017-08-07T05:25:53.827Z,75
2017-08-07T05:26:34.440Z,80
2017-08-07T05:27:15.009Z,80
2017-08-07T05:27:55.596Z,80
2017-08-07T05:28:36.171Z,80
2017-08-07T05:29:16.846Z,80
2017-08-07T05:29:57.418Z,80
2017-08-07T05:30:37.996Z,80
2017-08-07T05:31:18.659Z,85
2017-08-07T05:31:59.238Z,85
2017-08-07T05:32:39.816Z,85
2017-08-07T05:33:20.412Z,85
2017-08-07T05:34:00.978Z,85
2017-08-07T05:34:41.599Z,85
2017-08-07T05:35:22.796Z,85
2017-08-07T05:36:10.101Z,90
2017-08-07T05:36:56.184Z,90
2017-08-07T05:37:43.050Z,90
2017-08-07T05:38:25.946Z,90
2017-08-07T05:39:06.530Z,90
2017-08-07T05:39:47.098Z,90
2017-08-07T05:40:27.686Z,95
2017-08-07T05:41:08.262Z,95
2017-08-07T05:41:48.833Z,95
2017-08-07T05:42:29.413Z,100
2017-08-07T05:43:09.985Z,100
2017-08-07T05:43:50.568Z,100
2017-08-07T05:44:31.183Z,165
2017-08-07T05:45:11.733Z,540
2017-08-07T05:45:52.360Z,1060
2017-08-07T05:46:32.933Z,1395
2017-08-07T05:47:13.506Z,1400
2017-08-07T05:47:54.080Z,1470
2017-08-07T05:48:34.671Z,1450
2017-08-07T05:49:15.225Z,1490
2017-08-07T05:49:55.836Z,1415
2017-08-07T05:50:36.414Z,1455
2017-08-07T05:51:17.000Z,1510
2017-08-07T05:51:57.616Z,1590
2017-08-07T05:52:38.179Z,1560
2017-08-07T05:53:18.783Z,1555
2017-08-07T05:53:59.362Z,1480
2017-08-07T05:54:39.968Z,1295
2017-08-07T05:55:20.543Z,1155
2017-08-07T05:56:01.126Z,1315
2017-08-07T05:56:41.698Z,1555
2017-08-07T05:57:22.290Z,1605
2017-08-07T05:58:02.866Z,1490
2017-08-07T05:58:43.453Z,1465
2017-08-07T05:59:24.068Z,1555
2017-08-07T06:00:04.654Z,1585
2017-08-07T06:00:45.240Z,1515
2017-08-07T06:01:25.821Z,1540
2017-08-07T06:02:06.399Z,1575
2017-08-07T06:02:47.023Z,1620
2017-08-07T06:03:27.595Z,1680
2017-08-07T06:04:08.162Z,1650
2017-08-07T06:04:48.769Z,1605
2017-08-07T06:05:29.373Z,1555
2017-08-07T06:06:09.954Z,1530
2017-08-07T06:06:50.540Z,1590
2017-08-07T06:07:31.131Z,1655
2017-08-07T06:08:11.709Z,1675
2017-08-07T06:08:52.342Z,1660
2017-08-07T06:09:32.954Z,1720
2017-08-07T06:10:13.558Z,1795
2017-08-07T06:10:54.143Z,1710
2017-08-07T06:11:34.754Z,1665
2017-08-07T06:12:15.359Z,1690
2017-08-07T06:12:55.944Z,1725
2017-08-07T06:13:36.582Z,1660
2017-08-07T06:14:17.176Z,1740
2017-08-07T06:14:57.764Z,1815
2017-08-07T06:15:38.350Z,1730
2017-08-07T06:16:18.984Z,1710
2017-08-07T06:16:59.645Z,1735
2017-08-07T06:17:40.233Z,1770
2017-08-07T06:18:20.826Z,1785
2017-08-07T06:19:01.445Z,1730
2017-08-07T06:19:42.040Z,1725
2017-08-07T06:20:22.628Z,1765
2017-08-07T06:21:03.198Z,1805
2017-08-07T06:21:43.788Z,1790
2017-08-07T06:22:24.361Z,1850
2017-08-07T06:23:04.959Z,1845
2017-08-07T06:23:45.617Z,1790
2017-08-07T06:24:26.206Z,1735
2017-08-07T06:25:06.791Z,1785
2017-08-07T06:25:47.401Z,1825
2017-08-07T06:26:28.001Z,1790
2017-08-07T06:27:08.582Z,1800
2017-08-07T06:27:49.193Z,1810
2017-08-07T06:28:29.799Z,1805
2017-08-07T06:29:10.401Z,1810
2017-08-07T06:29:51.029Z,1865
2017-08-07T06:30:31.618Z,1885
2017-08-07T06:31:12.208Z,1875
2017-08-07T06:31:52.794Z,1880
2017-08-07T06:32:33.372Z,1885
2017-08-07T06:33:13.972Z,1840
2017-08-07T06:33:54.550Z,1790
2017-08-07T06:34:35.125Z,1770
2017-08-07T06:35:15.701Z,1835
2017-08-07T06:35:56.289Z,1845
2017-08-07T06:36:36.862Z,1855
2017-08-07T06:37:17.458Z,1895
2017-08-07T06:37:58.049Z,1910
2017-08-07T06:38:38.641Z,1895
2017-08-07T06:39:19.230Z,1870
2017-08-07T06:39:59.803Z,1860
2017-08-07T06:40:40.382Z,1855
2017-08-07T06:41:20.991Z,1865
2017-08-07T06:42:01.591Z,1745
2017-08-07T06:42:42.172Z,1800
2017-08-07T06:43:22.794Z,1935
2017-08-07T06:44:03.365Z,1985
2017-08-07T06:44:43.970Z,1835
2017-08-07T06:45:24.569Z,1790
2017-08-07T06:46:05.137Z,1765
2017-08-07T06:46:45.708Z,1850
2017-08-07T06:47:26.298Z,1860
2017-08-07T06:48:06.899Z,1880
2017-08-07T06:48:47.506Z,1905
2017-08-07T06:49:28.096Z,1905
2017-08-07T06:50:08.673Z,1880
2017-08-07T06:50:49.250Z,1870
2017-08-07T06:51:29.869Z,1885
2017-08-07T06:52:10.446Z,1840
2017-08-07T06:52:51.051Z,1830
2017-08-07T06:53:31.644Z,1855
2017-08-07T06:54:12.238Z,1935
2017-08-07T06:54:52.834Z,1940
2017-08-07T06:55:33.542Z,1935
2017-08-07T06:56:14.137Z,1945
2017-08-07T06:56:54.717Z,1935
2017-08-07T06:57:35.317Z,1905
2017-08-07T06:58:15.948Z,1945
2017-08-07T06:58:56.556Z,1900
2017-08-07T06:59:37.156Z,1910
2017-08-07T07:00:17.757Z,1835
2017-08-07T07:00:58.342Z,1835
2017-08-07T07:01:38.929Z,1905
2017-08-07T07:02:19.531Z,1960
2017-08-07T07:03:00.128Z,1880
2017-08-07T07:03:40.722Z,1930
2017-08-07T07:04:21.332Z,1920
2017-08-07T07:05:01.918Z,1930
2017-08-07T07:05:42.497Z,1910
2017-08-07T07:06:23.092Z,1950
2017-08-07T07:07:03.691Z,1975
2017-08-07T07:07:44.281Z,1960
2017-08-07T07:08:24.867Z,1880
2017-08-07T07:09:05.441Z,1895
2017-08-07T07:09:46.058Z,1915
2017-08-07T07:10:26.645Z,1995
2017-08-07T07:11:07.238Z,2000
2017-08-07T07:11:47.822Z,2040
2017-08-07T07:12:28.412Z,1980
2017-08-07T07:13:09.029Z,1945
2017-08-07T07:13:49.609Z,1910
2017-08-07T07:14:30.208Z,1930
2017-08-07T07:15:10.808Z,1890
2017-08-07T07:15:51.431Z,1865
2017-08-07T07:16:32.042Z,1880
2017-08-07T07:17:12.656Z,1870
2017-08-07T07:17:53.245Z,1845
2017-08-07T07:18:33.839Z,1800
2017-08-07T07:19:14.424Z,1710
2017-08-07T07:19:55.030Z,1555
2017-08-07T07:20:35.609Z,1455
2017-08-07T07:21:16.185Z,1405
2017-08-07T07:21:56.766Z,1315
2017-08-07T07:22:37.348Z,1265
2017-08-07T07:23:17.945Z,1165
2017-08-07T07:23:58.522Z,1065
2017-08-07T07:24:39.120Z,965
2017-08-07T07:25:19.711Z,915
2017-08-07T07:26:00.284Z,865
2017-08-07T07:26:40.883Z,800
2017-08-07T07:27:21.466Z,730
2017-08-07T07:28:02.036Z,680
2017-08-07T07:28:42.642Z,655
2017-08-07T07:29:23.231Z,650
2017-08-07T07:30:03.873Z,645
2017-08-07T07:30:44.443Z,620
2017-08-07T07:31:25.062Z,600
2017-08-07T07:32:05.651Z,590
2017-08-07T07:32:46.249Z,585
2017-08-07T07:33:26.841Z,585
2017-08-07T07:34:07.431Z,585
2017-08-07T07:34:47.997Z,580
2017-08-07T07:35:28.587Z,580
2017-08-07T07:36:09.159Z,575
2017-08-07T07:36:49.765Z,565
2017-08-07T07:37:30.347Z,555
2017-08-07T07:38:10.951Z,555
2017-08-07T07:38:51.541Z,565
2017-08-07T07:39:32.139Z,570
2017-08-07T07:40:12.725Z,570
2017-08-07T07:40:53.316Z,565
2017-08-07T07:41:33.926Z,575
2017-08-07T07:42:14.519Z,585
2017-08-07T07:42:55.106Z,595
2017-08-07T07:43:35.681Z,595
2017-08-07T07:44:16.267Z,595
2017-08-07T07:44:56.845Z,590
2017-08-07T07:45:37.473Z,585
2017-08-07T07:46:18.069Z,580
2017-08-07T07:46:58.652Z,575
2017-08-07T07:47:39.248Z,570
2017-08-07T07:48:19.839Z,570
2017-08-07T07:49:00.631Z,560
2017-08-07T07:49:41.241Z,565
2017-08-07T07:50:21.823Z,565
2017-08-07T07:51:02.417Z,560
2017-08-07T07:51:43.046Z,550
2017-08-07T07:52:23.618Z,550
2017-08-07T07:53:04.202Z,550
2017-08-07T07:53:44.793Z,555
2017-08-07T07:54:25.383Z,560
2017-08-07T07:55:05.995Z,560
2017-08-07T07:55:46.570Z,550
2017-08-07T07:56:27.147Z,540
2017-08-07T07:57:07.751Z,540
2017-08-07T07:57:48.333Z,545
2017-08-07T07:58:28.913Z,540
2017-08-07T07:59:09.501Z,535
2017-08-07T07:59:50.093Z,540
2017-08-07T08:00:30.726Z,540
2017-08-07T08:01:11.340Z,535
2017-08-07T08:01:51.921Z,535
2017-08-07T08:02:32.512Z,545
2017-08-07T08:03:13.093Z,540
2017-08-07T08:03:53.684Z,520
2017-08-07T08:04:34.332Z,525
2017-08-07T08:05:14.947Z,520
2017-08-07T08:05:55.537Z,500
2017-08-07T08:06:36.165Z,490
2017-08-07T08:07:16.780Z,465
2017-08-07T08:07:57.355Z,445
2017-08-07T08:08:37.932Z,430
2017-08-07T08:09:18.527Z,405
2017-08-07T08:09:59.137Z,395
2017-08-07T08:10:39.735Z,380
2017-08-07T08:11:20.330Z,380
2017-08-07T08:12:00.917Z,380
2017-08-07T08:12:41.507Z,375
2017-08-07T08:13:22.591Z,370
2017-08-07T08:14:03.328Z,365
2017-08-07T08:14:43.923Z,365
2017-08-07T08:15:24.506Z,360
2017-08-07T08:16:05.148Z,355
2017-08-07T08:16:45.868Z,355
2017-08-07T08:17:26.497Z,350
2017-08-07T08:18:07.172Z,345
2017-08-07T08:18:47.772Z,345
2017-08-07T08:19:28.370Z,345
2017-08-07T08:20:09.019Z,340
2017-08-07T08:20:49.546Z,335
2017-08-07T08:21:30.155Z,330
2017-08-07T08:22:10.782Z,325
2017-08-07T08:22:51.340Z,320
2017-08-07T08:23:31.944Z,310
2017-08-07T08:24:12.559Z,310
2017-08-07T08:24:53.139Z,305
2017-08-07T08:25:33.726Z,300
2017-08-07T08:26:14.304Z,295
2017-08-07T08:26:54.885Z,285
2017-08-07T08:27:35.522Z,285
2017-08-07T08:28:16.109Z,280
2017-08-07T08:28:56.693Z,270
2017-08-07T08:29:37.268Z,275
2017-08-07T08:30:17.836Z,265
2017-08-07T08:30:58.427Z,260
2017-08-07T08:31:39.001Z,255
2017-08-07T08:32:19.594Z,255
2017-08-07T08:33:00.212Z,250
2017-08-07T08:33:40.790Z,245
2017-08-07T08:34:21.371Z,240
2017-08-07T08:35:01.984Z,240
2017-08-07T08:35:42.582Z,235
2017-08-07T08:36:23.186Z,235
2017-08-07T08:37:03.771Z,230
2017-08-07T08:37:44.364Z,225
2017-08-07T08:38:24.957Z,225
2017-08-07T08:39:05.528Z,225
2017-08-07T08:39:46.117Z,220
2017-08-07T08:40:26.717Z,220
2017-08-07T08:41:07.298Z,215
2017-08-07T08:41:47.872Z,210
2017-08-07T08:42:28.448Z,205
2017-08-07T08:43:09.038Z,205
2017-08-07T08:43:49.676Z,205
2017-08-07T08:44:30.252Z,200
2017-08-07T08:45:10.864Z,195
2017-08-07T08:45:51.484Z,195
2017-08-07T08:46:32.076Z,195
2017-08-07T08:47:12.664Z,190
2017-08-07T08:47:53.260Z,190
2017-08-07T08:48:33.830Z,185
2017-08-07T08:49:14.420Z,180
2017-08-07T08:49:55.019Z,180
2017-08-07T08:50:35.585Z,180
2017-08-07T08:51:16.202Z,175
2017-08-07T08:51:56.832Z,175
2017-08-07T08:52:37.396Z,175
2017-08-07T08:53:17.975Z,175
2017-08-07T08:53:58.562Z,170
2017-08-07T08:54:39.197Z,170
2017-08-07T08:55:19.774Z,170
2017-08-07T08:56:00.360Z,170
2017-08-07T08:56:40.950Z,170
2017-08-07T08:57:21.578Z,170
2017-08-07T08:58:02.250Z,170
2017-08-07T08:58:42.825Z,170
2017-08-07T08:59:23.426Z,170
2017-08-07T09:00:04.026Z,155
2017-08-07T09:00:44.638Z,155
2017-08-07T09:01:25.238Z,150
2017-08-07T09:02:05.832Z,155
2017-08-07T09:02:46.416Z,165
2017-08-07T09:03:27.024Z,160
2017-08-07T09:04:07.609Z,160
2017-08-07T09:04:48.179Z,160
2017-08-07T09:05:28.765Z,160
2017-08-07T09:06:09.358Z,160
2017-08-07T09:06:49.959Z,160
2017-08-07T09:07:30.557Z,160
2017-08-07T09:08:11.138Z,160
2017-08-07T09:08:51.743Z,160
2017-08-07T09:09:32.346Z,160
2017-08-07T09:10:12.934Z,160
2017-08-07T09:10:53.515Z,155
2017-08-07T09:11:34.088Z,160
2017-08-07T09:12:14.666Z,160
2017-08-07T09:12:55.257Z,160
2017-08-07T09:13:35.890Z,155
2017-08-07T09:14:16.473Z,155
2017-08-07T09:14:57.048Z,155
2017-08-07T09:15:37.633Z,155
2017-08-07T09:16:18.204Z,155
2017-08-07T09:16:58.793Z,150
2017-08-07T09:17:39.388Z,155
2017-08-07T09:18:19.977Z,155
2017-08-07T09:19:00.570Z,160
2017-08-07T09:19:41.331Z,155
2017-08-07T09:20:21.921Z,155
2017-08-07T09:21:02.508Z,155
2017-08-07T09:21:43.142Z,155
2017-08-07T09:22:23.686Z,150
2017-08-07T09:23:04.269Z,145
2017-08-07T09:23:44.881Z,145
2017-08-07T09:24:25.460Z,145
2017-08-07T09:25:06.029Z,145
2017-08-07T09:25:46.610Z,145
2017-08-07T09:26:27.193Z,145
2017-08-07T09:27:07.763Z,150
2017-08-07T09:27:48.339Z,150
2017-08-07T09:28:28.922Z,150
2017-08-07T09:29:09.502Z,150
2017-08-07T09:29:50.081Z,150
2017-08-07T09:30:30.679Z,150
2017-08-07T09:31:11.255Z,150
2017-08-07T09:31:51.828Z,145
2017-08-07T09:32:32.400Z,145
2017-08-07T09:33:12.980Z,145
2017-08-07T09:33:53.550Z,145
2017-08-07T09:34:34.119Z,145
2017-08-07T09:35:14.709Z,145
2017-08-07T09:35:55.297Z,145